createdAt,value
2018-11-11T00:00:23.394Z,95971.89
2018-11-11T00:02:52.665Z,95966.32
2018-11-11T00:05:21.002Z,95975.17
2018-11-11T00:07:49.326Z,95973.85
2018-11-11T00:10:17.683Z,95961.53
2018-11-11T00:12:46.004Z,95967.18
2018-11-11T00:15:15.516Z,95970.69
2018-11-11T00:17:44.875Z,95981.97
2018-11-11T00:20:13.487Z,95972.09
2018-11-11T00:22:42.040Z,95967.81
2018-11-11T00:25:10.430Z,95962.99
2018-11-11T00:27:39.544Z,95958.20
2018-11-11T00:30:09.851Z,95970.80
2018-11-11T00:32:38.171Z,95968.92
2018-11-11T00:35:06.607Z,95976.97
2018-11-11T00:37:34.888Z,95985.26
2018-11-11T00:40:03.242Z,95990.31
2018-11-11T00:42:31.547Z,95995.17
2018-11-11T00:45:00.818Z,95990.89
2018-11-11T00:47:29.119Z,95994.34
2018-11-11T00:49:57.552Z,96005.90
2018-11-11T00:52:25.854Z,96009.42
2018-11-11T00:54:55.058Z,96021.20
2018-11-11T00:57:23.551Z,96016.63
2018-11-11T00:59:51.866Z,96018.21
2018-11-11T01:02:20.219Z,96015.03
2018-11-11T01:04:48.522Z,96025.19
2018-11-11T01:07:16.893Z,96018.21
2018-11-11T01:09:45.218Z,96023.34
2018-11-11T01:12:13.596Z,96029.20
2018-11-11T01:14:41.851Z,96030.28
2018-11-11T01:17:10.479Z,96037.27
2018-11-11T01:19:38.807Z,96035.14
2018-11-11T01:22:07.122Z,96027.12
2018-11-11T01:24:35.410Z,96037.53
2018-11-11T01:27:03.747Z,96042.36
2018-11-11T01:29:32.297Z,96037.55
2018-11-11T01:32:00.599Z,96033.26
2018-11-11T01:34:28.899Z,96033.80
2018-11-11T01:36:57.195Z,96038.09
2018-11-11T01:39:25.667Z,96028.95
2018-11-11T01:41:54.195Z,96011.30
2018-11-11T01:44:22.490Z,96011.84
2018-11-11T01:46:50.811Z,96009.44
2018-11-11T01:49:19.111Z,95998.45
2018-11-11T01:51:47.423Z,95989.37
2018-11-11T01:54:15.723Z,95994.72
2018-11-11T01:56:44.037Z,95996.07
2018-11-11T01:59:12.352Z,96004.63
2018-11-11T02:01:41.359Z,96003.27
2018-11-11T02:04:09.652Z,96009.73
2018-11-11T02:06:37.979Z,96014.28
2018-11-11T02:09:08.351Z,96005.97
2018-11-11T02:11:36.680Z,96007.31
2018-11-11T02:14:05.019Z,96018.28
2018-11-11T02:16:33.341Z,96008.92
2018-11-11T02:19:01.631Z,96007.06
2018-11-11T02:21:30.016Z,96011.08
2018-11-11T02:23:58.396Z,96013.48
2018-11-11T02:26:26.707Z,96005.17
2018-11-11T02:28:55.003Z,96010.22
2018-11-11T02:31:23.335Z,96005.94
2018-11-11T02:33:51.631Z,96008.61
2018-11-11T02:36:19.951Z,96019.33
2018-11-11T02:38:48.279Z,96011.55
2018-11-11T02:41:16.589Z,96007.26
2018-11-11T02:43:44.872Z,96003.22
2018-11-11T02:46:13.191Z,95989.54
2018-11-11T02:48:41.476Z,95990.34
2018-11-11T02:51:10.335Z,95986.07
2018-11-11T02:53:38.919Z,95995.17
2018-11-11T02:56:07.732Z,95998.92
2018-11-11T02:58:36.028Z,95997.84
2018-11-11T03:01:04.403Z,95975.89
2018-11-11T03:03:32.712Z,95969.97
2018-11-11T03:06:01.011Z,95963.01
2018-11-11T03:08:29.299Z,95958.16
2018-11-11T03:10:57.619Z,95956.02
2018-11-11T03:13:25.931Z,95946.63
2018-11-11T03:15:54.231Z,95945.83
2018-11-11T03:18:22.540Z,95956.83
2018-11-11T03:20:50.835Z,95950.96
2018-11-11T03:23:19.359Z,95961.67
2018-11-11T03:25:47.675Z,95959.28
2018-11-11T03:28:15.988Z,95961.42
2018-11-11T03:30:44.285Z,95957.95
2018-11-11T03:33:12.615Z,95957.95
2018-11-11T03:35:40.911Z,95953.13
2018-11-11T03:38:09.219Z,95957.66
2018-11-11T03:40:37.488Z,95956.61
2018-11-11T03:43:05.827Z,95970.75
2018-11-11T03:45:34.835Z,95960.61
2018-11-11T03:48:03.156Z,95956.83
2018-11-11T03:50:31.451Z,95954.13
2018-11-11T03:52:59.776Z,95957.53
2018-11-11T03:55:28.079Z,95962.36
2018-11-11T03:57:56.382Z,95959.70
2018-11-11T04:00:24.654Z,95967.72
2018-11-11T04:02:52.960Z,95957.86
2018-11-11T04:05:21.252Z,95955.39
2018-11-11T04:07:49.556Z,95956.41
2018-11-11T04:10:18.926Z,95945.89
2018-11-11T04:12:47.797Z,95950.72
2018-11-11T04:15:17.327Z,95951.76
2018-11-11T04:17:45.898Z,95959.53
2018-11-11T04:20:15.578Z,95955.78
2018-11-11T04:22:43.908Z,95965.70
2018-11-11T04:25:12.584Z,95959.53
2018-11-11T04:27:40.913Z,95964.33
2018-11-11T04:30:10.239Z,95958.39
2018-11-11T04:32:38.591Z,95969.42
2018-11-11T04:35:07.324Z,95954.17
2018-11-11T04:37:35.623Z,95965.66
2018-11-11T04:40:04.047Z,95955.98
2018-11-11T04:42:32.363Z,95956.78
2018-11-11T04:45:00.647Z,95957.05
2018-11-11T04:47:28.965Z,95937.52
2018-11-11T04:49:57.264Z,95941.80
2018-11-11T04:52:25.577Z,95937.28
2018-11-11T04:54:53.861Z,95923.30
2018-11-11T04:57:22.178Z,95921.70
2018-11-11T04:59:50.506Z,95897.34
2018-11-11T05:02:18.863Z,95913.16
2018-11-11T05:04:47.257Z,95924.18
2018-11-11T05:07:15.463Z,95937.31
2018-11-11T05:09:43.800Z,95952.56
2018-11-11T05:12:12.107Z,95966.80
2018-11-11T05:14:40.411Z,95968.64
2018-11-11T05:17:08.713Z,95977.22
2018-11-11T05:19:37.023Z,95994.41
2018-11-11T05:22:05.868Z,95990.09
2018-11-11T05:24:34.180Z,95990.36
2018-11-11T05:27:02.480Z,95992.80
2018-11-11T05:29:30.795Z,95991.94
2018-11-11T05:31:59.315Z,95996.77
2018-11-11T05:34:27.655Z,95987.11
2018-11-11T05:36:55.977Z,95998.91
2018-11-11T05:39:24.281Z,96002.13
2018-11-11T05:41:52.559Z,96010.70
2018-11-11T05:44:20.871Z,96008.02
2018-11-11T05:46:49.156Z,96016.04
2018-11-11T05:49:17.483Z,96009.09
2018-11-11T05:51:45.786Z,96029.47
2018-11-11T05:54:14.141Z,96031.35
2018-11-11T05:56:42.444Z,96033.49
2018-11-11T05:59:10.751Z,96031.65
2018-11-11T06:01:39.067Z,96022.53
2018-11-11T06:04:07.427Z,96022.27
2018-11-11T06:06:35.843Z,96024.19
2018-11-11T06:09:05.112Z,96037.06
2018-11-11T06:11:33.431Z,96029.82
2018-11-11T06:14:01.806Z,96021.51
2018-11-11T06:16:30.926Z,96026.59
2018-11-11T06:19:00.078Z,96028.77
2018-11-11T06:21:29.454Z,96035.20
2018-11-11T06:23:58.980Z,96032.00
2018-11-11T06:26:27.332Z,96020.19
2018-11-11T06:28:55.677Z,96030.94
2018-11-11T06:31:23.983Z,96040.61
2018-11-11T06:33:52.358Z,96032.83
2018-11-11T06:36:20.635Z,96019.45
2018-11-11T06:38:48.987Z,96035.56
2018-11-11T06:41:17.323Z,96042.27
2018-11-11T06:43:45.655Z,96044.66
2018-11-11T06:46:14.851Z,96054.56
2018-11-11T06:48:43.187Z,96076.30
2018-11-11T06:51:11.499Z,96069.35
2018-11-11T06:53:40.104Z,96073.89
2018-11-11T06:56:08.431Z,96074.95
2018-11-11T06:58:36.772Z,96079.75
2018-11-11T07:01:05.467Z,96062.84
2018-11-11T07:03:58.964Z,96079.46
2018-11-11T07:06:27.750Z,96066.60
2018-11-11T07:08:56.183Z,96083.20
2018-11-11T07:11:24.544Z,96081.10
2018-11-11T07:13:52.943Z,96089.12
2018-11-11T07:16:21.595Z,96079.47
2018-11-11T07:18:49.936Z,96093.66
2018-11-11T07:21:19.134Z,96096.33
2018-11-11T07:23:47.849Z,96089.88
2018-11-11T07:26:16.056Z,96104.07
2018-11-11T07:28:44.545Z,96110.50
2018-11-11T07:31:12.859Z,96115.84
2018-11-11T07:33:41.230Z,96127.64
2018-11-11T07:36:10.470Z,96123.64
2018-11-11T07:38:38.815Z,96131.66
2018-11-11T07:41:07.412Z,96132.18
2018-11-11T07:43:36.083Z,96132.69
2018-11-11T07:46:04.538Z,96143.16
2018-11-11T07:48:33.186Z,96159.25
2018-11-11T07:51:01.611Z,96161.91
2018-11-11T07:53:30.008Z,96165.39
2018-11-11T07:55:58.387Z,96175.59
2018-11-11T07:58:26.800Z,96172.88
2018-11-11T08:00:55.061Z,96159.89
2018-11-11T08:03:23.423Z,96177.06
2018-11-11T08:05:51.812Z,96161.80
2018-11-11T08:08:20.136Z,96167.17
2018-11-11T08:10:59.599Z,96194.22
2018-11-11T08:13:28.024Z,96187.83
2018-11-11T08:15:56.351Z,96178.78
2018-11-11T08:18:24.676Z,96204.58
2018-11-11T08:20:52.999Z,96183.91
2018-11-11T08:23:21.957Z,96176.11
2018-11-11T08:25:50.315Z,96178.50
2018-11-11T08:28:18.631Z,96177.38
2018-11-11T08:30:46.953Z,96205.13
2018-11-11T08:33:15.365Z,96183.83
2018-11-11T08:35:43.710Z,96182.22
2018-11-11T08:38:12.043Z,96192.81
2018-11-11T08:40:40.456Z,96195.46
2018-11-11T08:43:08.720Z,96199.10
2018-11-11T08:45:37.063Z,96205.90
2018-11-11T08:48:05.582Z,96191.41
2018-11-11T08:50:34.227Z,96192.51
2018-11-11T08:53:02.555Z,96191.13
2018-11-11T08:55:30.891Z,96198.19
2018-11-11T08:57:59.286Z,96194.27
2018-11-11T09:00:27.604Z,96184.06
2018-11-11T09:02:55.923Z,96188.55
2018-11-11T09:05:24.257Z,96187.11
2018-11-11T09:07:52.572Z,96193.48
2018-11-11T09:10:20.915Z,96203.20
2018-11-11T09:12:49.251Z,96195.33
2018-11-11T09:15:17.603Z,96190.41
2018-11-11T09:17:45.927Z,96191.31
2018-11-11T09:20:15.379Z,96201.30
2018-11-11T09:22:43.692Z,96203.65
2018-11-11T09:25:12.139Z,96211.48
2018-11-11T09:27:41.823Z,96207.02
2018-11-11T09:30:12.499Z,96219.01
2018-11-11T09:32:41.036Z,96211.15
2018-11-11T09:35:09.662Z,96207.66
2018-11-11T09:37:38.408Z,96201.70
2018-11-11T09:40:07.583Z,96205.66
2018-11-11T09:42:35.986Z,96214.23
2018-11-11T09:45:04.514Z,96208.09
2018-11-11T09:47:32.891Z,96203.91
2018-11-11T09:50:01.519Z,96209.77
2018-11-11T09:52:29.891Z,96226.70
2018-11-11T09:54:58.343Z,96225.20
2018-11-11T09:57:27.903Z,96228.67
2018-11-11T09:59:56.277Z,96225.63
2018-11-11T10:02:24.642Z,96214.72
2018-11-11T10:05:03.813Z,96210.14
2018-11-11T10:07:37.715Z,96215.04
2018-11-11T10:10:11.169Z,96215.15
2018-11-11T10:12:46.738Z,96216.70
2018-11-11T10:15:20.279Z,96225.16
2018-11-11T10:17:53.599Z,96223.42
2018-11-11T10:20:58.620Z,96217.26
2018-11-11T10:23:34.499Z,96211.43
2018-11-11T10:26:05.951Z,96207.56
2018-11-11T10:30:44.588Z,96208.79
2018-11-11T10:33:31.239Z,96211.80
2018-11-11T10:36:05.898Z,96228.04
2018-11-11T10:38:39.779Z,96229.23
2018-11-11T10:41:13.173Z,96236.44
2018-11-11T10:43:51.040Z,96231.19
2018-11-11T10:46:28.125Z,96233.67
2018-11-11T10:48:59.256Z,96232.69
2018-11-11T10:51:27.608Z,96245.95
2018-11-11T10:53:55.946Z,96239.48
2018-11-11T10:56:24.271Z,96242.66
2018-11-11T10:58:52.595Z,96244.00
2018-11-11T11:01:26.844Z,96243.10
2018-11-11T11:03:55.188Z,96262.10
2018-11-11T11:06:28.931Z,96247.38
2018-11-11T11:09:02.377Z,96242.23
2018-11-11T11:11:30.751Z,96256.13
2018-11-11T11:13:59.168Z,96237.20
2018-11-11T11:16:27.464Z,96244.41
2018-11-11T11:18:55.800Z,96247.89
2018-11-11T11:21:24.123Z,96245.29
2018-11-11T11:23:52.464Z,96233.92
2018-11-11T11:26:20.779Z,96247.55
2018-11-11T11:28:49.163Z,96248.13
2018-11-11T11:31:17.505Z,96249.33
2018-11-11T11:33:45.815Z,96262.65
2018-11-11T11:36:14.160Z,96247.78
2018-11-11T11:38:42.511Z,96257.16
2018-11-11T11:41:10.850Z,96248.46
2018-11-11T11:43:39.200Z,96262.44
2018-11-11T11:46:07.519Z,96264.05
2018-11-11T11:48:36.299Z,96262.08
2018-11-11T11:51:04.687Z,96273.08
2018-11-11T11:53:33.031Z,96265.49
2018-11-11T11:56:01.367Z,96268.33
2018-11-11T11:58:30.719Z,96278.84
2018-11-11T12:00:59.099Z,96292.05
2018-11-11T12:03:27.759Z,96290.72
2018-11-11T12:05:56.103Z,96295.69
2018-11-11T12:08:24.554Z,96293.11
2018-11-11T12:10:52.878Z,96309.38
2018-11-11T12:13:21.224Z,96308.73
2018-11-11T12:15:49.547Z,96309.89
2018-11-11T12:18:17.878Z,96299.06
2018-11-11T12:20:46.211Z,96309.23
2018-11-11T12:23:15.041Z,96308.97
2018-11-11T12:25:43.324Z,96307.42
2018-11-11T12:28:11.655Z,96314.37
2018-11-11T12:30:39.993Z,96317.44
2018-11-11T12:33:08.332Z,96319.59
2018-11-11T12:35:36.684Z,96317.52
2018-11-11T12:38:05.288Z,96336.53
2018-11-11T12:40:33.895Z,96324.61
2018-11-11T12:43:02.218Z,96338.09
2018-11-11T12:45:30.559Z,96328.27
2018-11-11T12:47:58.866Z,96335.66
2018-11-11T12:50:27.300Z,96341.55
2018-11-11T12:52:55.551Z,96346.55
2018-11-11T12:55:23.959Z,96331.99
2018-11-11T12:57:52.255Z,96333.41
2018-11-11T13:00:20.591Z,96325.83
2018-11-11T13:02:48.903Z,96318.95
2018-11-11T13:05:17.243Z,96330.30
2018-11-11T13:07:45.570Z,96329.88
2018-11-11T13:10:14.391Z,96339.99
2018-11-11T13:12:43.439Z,96326.16
2018-11-11T13:15:13.019Z,96332.81
2018-11-11T13:17:41.739Z,96326.35
2018-11-11T13:20:12.895Z,96329.86
2018-11-11T13:22:41.297Z,96333.94
2018-11-11T13:25:10.788Z,96331.64
2018-11-11T13:27:39.447Z,96326.43
2018-11-11T13:30:09.596Z,96324.34
2018-11-11T13:32:38.127Z,96330.93
2018-11-11T13:35:07.647Z,96333.44
2018-11-11T13:37:35.991Z,96331.25
2018-11-11T13:40:05.384Z,96327.88
2018-11-11T13:42:33.715Z,96328.44
2018-11-11T13:45:02.064Z,96315.02
2018-11-11T13:47:30.385Z,96308.30
2018-11-11T13:49:58.716Z,96316.05
2018-11-11T13:52:27.055Z,96315.59
2018-11-11T13:54:55.379Z,96314.08
2018-11-11T13:57:23.723Z,96307.66
2018-11-11T13:59:52.068Z,96310.93
2018-11-11T14:02:20.416Z,96304.17
2018-11-11T14:04:48.755Z,96301.61
2018-11-11T14:07:17.085Z,96308.91
2018-11-11T14:09:45.622Z,96301.88
2018-11-11T14:12:13.915Z,96298.91
2018-11-11T14:14:42.292Z,96301.34
2018-11-11T14:17:10.599Z,96296.85
2018-11-11T14:19:39.013Z,96289.28
2018-11-11T14:22:07.719Z,96283.35
2018-11-11T14:24:36.988Z,96305.58
2018-11-11T14:27:05.871Z,96297.48
2018-11-11T14:29:34.198Z,96310.09
2018-11-11T14:32:02.628Z,96314.37
2018-11-11T14:34:31.009Z,96310.72
2018-11-11T14:36:59.288Z,96313.84
2018-11-11T14:39:27.627Z,96322.16
2018-11-11T14:41:55.990Z,96321.56
2018-11-11T14:44:24.327Z,96327.86
2018-11-11T14:46:53.171Z,96316.62
2018-11-11T14:49:21.533Z,96320.65
2018-11-11T14:51:49.931Z,96324.83
2018-11-11T14:54:18.223Z,96319.59
2018-11-11T14:56:46.579Z,96311.11
2018-11-11T14:59:14.899Z,96309.17
2018-11-11T15:01:43.323Z,96317.66
2018-11-11T15:04:11.769Z,96311.80
2018-11-11T15:06:40.734Z,96313.97
2018-11-11T15:09:10.920Z,96313.50
2018-11-11T15:11:40.840Z,96308.01
2018-11-11T15:14:09.939Z,96312.00
2018-11-11T15:16:38.480Z,96307.00
2018-11-11T15:19:07.484Z,96311.56
2018-11-11T15:21:35.937Z,96325.05
2018-11-11T15:24:05.048Z,96317.17
2018-11-11T15:26:33.608Z,96325.39
2018-11-11T15:29:02.228Z,96336.98
2018-11-11T15:31:31.333Z,96339.39
2018-11-11T15:34:01.638Z,96347.02
2018-11-11T15:36:30.645Z,96334.34
2018-11-11T15:38:59.246Z,96342.97
2018-11-11T15:41:27.887Z,96348.69
2018-11-11T15:43:57.368Z,96339.20
2018-11-11T15:46:25.959Z,96343.33
2018-11-11T15:48:54.499Z,96348.19
2018-11-11T15:51:23.549Z,96347.89
2018-11-11T15:53:52.329Z,96357.31
2018-11-11T15:56:20.811Z,96364.62
2018-11-11T15:58:49.310Z,96365.44
2018-11-11T16:01:17.852Z,96353.75
2018-11-11T16:03:46.355Z,96349.53
2018-11-11T16:06:14.944Z,96359.61
2018-11-11T16:08:43.507Z,96368.19
2018-11-11T16:11:11.983Z,96370.00
2018-11-11T16:13:40.455Z,96377.94
2018-11-11T16:16:09.067Z,96379.55
2018-11-11T16:18:37.698Z,96375.77
2018-11-11T16:21:06.341Z,96377.36
2018-11-11T16:23:35.012Z,96373.63
2018-11-11T16:26:03.391Z,96379.45
2018-11-11T16:28:31.931Z,96372.30
2018-11-11T16:31:00.331Z,96365.98
2018-11-11T16:33:28.762Z,96363.66
2018-11-11T16:35:57.275Z,96355.40
2018-11-11T16:38:25.764Z,96362.08
2018-11-11T16:40:54.467Z,96355.40
2018-11-11T16:43:22.695Z,96347.86
2018-11-11T16:45:51.011Z,96353.83
2018-11-11T16:48:19.330Z,96354.02
2018-11-11T16:50:47.619Z,96362.41
2018-11-11T16:53:16.045Z,96372.36
2018-11-11T16:55:44.256Z,96368.02
2018-11-11T16:58:12.568Z,96366.94
2018-11-11T17:00:40.880Z,96351.86
2018-11-11T17:03:09.688Z,96344.64
2018-11-11T17:05:38.567Z,96342.53
2018-11-11T17:08:07.059Z,96342.75
2018-11-11T17:10:36.453Z,96332.16
2018-11-11T17:13:07.311Z,96338.08
2018-11-11T17:15:35.643Z,96325.43
2018-11-11T17:18:03.983Z,96326.78
2018-11-11T17:20:32.350Z,96336.96
2018-11-11T17:23:02.152Z,96334.70
2018-11-11T17:25:30.458Z,96333.83
2018-11-11T17:27:58.853Z,96343.48
2018-11-11T17:30:28.603Z,96344.17
2018-11-11T17:32:57.596Z,96338.31
2018-11-11T17:35:25.881Z,96352.84
2018-11-11T17:37:54.211Z,96347.14
2018-11-11T17:40:23.820Z,96345.52
2018-11-11T17:42:53.039Z,96359.64
2018-11-11T17:45:21.517Z,96359.36
2018-11-11T17:47:50.687Z,96360.39
2018-11-11T17:50:25.309Z,96360.92
2018-11-11T17:52:53.620Z,96364.16
2018-11-11T17:55:23.207Z,96359.04
2018-11-11T17:57:51.451Z,96348.05
2018-11-11T18:00:21.176Z,96344.81
2018-11-11T18:02:49.510Z,96351.44
2018-11-11T18:05:20.279Z,96350.47
2018-11-11T18:07:50.324Z,96344.84
2018-11-11T18:10:20.108Z,96357.11
2018-11-11T18:12:48.819Z,96355.80
2018-11-11T18:15:18.805Z,96354.12
2018-11-11T18:17:47.108Z,96357.37
2018-11-11T18:20:17.064Z,96368.89
2018-11-11T18:22:45.691Z,96364.63
2018-11-11T18:25:14.123Z,96376.35
2018-11-11T18:27:42.451Z,96371.55
2018-11-11T18:30:13.759Z,96372.84
2018-11-11T18:32:42.322Z,96374.28
2018-11-11T18:35:12.481Z,96382.81
2018-11-11T18:37:41.863Z,96383.20
2018-11-11T18:40:12.758Z,96390.48
2018-11-11T18:42:42.108Z,96384.07
2018-11-11T18:45:13.779Z,96392.49
2018-11-11T18:47:43.441Z,96390.43
2018-11-11T18:50:15.048Z,96391.77
2018-11-11T18:52:44.360Z,96384.47
2018-11-11T18:55:12.880Z,96370.52
2018-11-11T18:57:42.241Z,96379.63
2018-11-11T19:00:13.946Z,96368.50
2018-11-11T19:02:42.963Z,96378.19
2018-11-11T19:05:12.831Z,96363.33
2018-11-11T19:07:42.307Z,96367.86
2018-11-11T19:10:13.857Z,96378.36
2018-11-11T19:12:43.845Z,96386.63
2018-11-11T19:15:13.363Z,96390.12
2018-11-11T19:17:43.535Z,96402.00
2018-11-11T19:20:13.183Z,96413.81
2018-11-11T19:22:41.512Z,96428.02
2018-11-11T19:25:12.358Z,96425.83
2018-11-11T19:27:41.203Z,96428.24
2018-11-11T19:30:10.355Z,96433.87
2018-11-11T19:32:39.575Z,96437.67
2018-11-11T19:35:08.342Z,96442.26
2018-11-11T19:37:36.703Z,96453.66
2018-11-11T19:40:06.583Z,96454.96
2018-11-11T19:42:34.916Z,96449.34
2018-11-11T19:45:03.257Z,96456.47
2018-11-11T19:47:31.584Z,96466.17
2018-11-11T19:50:00.264Z,96489.20
2018-11-11T19:52:30.213Z,96516.88
2018-11-11T19:54:58.535Z,96518.61
2018-11-11T19:57:26.858Z,96519.59
2018-11-11T19:59:55.159Z,96522.00
2018-11-11T20:02:24.196Z,96547.08
2018-11-11T20:04:52.876Z,96542.45
2018-11-11T20:07:22.119Z,96546.81
2018-11-11T20:09:51.312Z,96555.41
2018-11-11T20:12:20.812Z,96569.66
2018-11-11T20:14:49.625Z,96571.28
2018-11-11T20:17:18.714Z,96570.74
2018-11-11T20:19:47.268Z,96567.53
2018-11-11T20:22:16.607Z,96575.30
2018-11-11T20:24:45.195Z,96586.05
2018-11-11T20:27:14.066Z,96594.92
2018-11-11T20:29:42.988Z,96595.98
2018-11-11T20:39:16.922Z,96597.62
2018-11-11T20:41:46.447Z,96599.20
2018-11-11T20:44:15.353Z,96582.85
2018-11-11T20:46:45.096Z,96581.23
2018-11-11T20:49:13.416Z,96600.27
2018-11-11T20:51:41.743Z,96606.20
2018-11-11T20:54:10.704Z,96611.55
2018-11-11T20:56:39.090Z,96625.52
2018-11-11T20:59:07.352Z,96640.58
2018-11-11T21:01:35.696Z,96654.25
2018-11-11T21:04:04.075Z,96647.55
2018-11-11T21:06:32.643Z,96647.53
2018-11-11T21:09:02.803Z,96653.98
2018-11-11T21:11:31.623Z,96670.63
2018-11-11T21:14:01.269Z,96687.80
2018-11-11T21:16:30.276Z,96686.17
2018-11-11T21:18:59.339Z,96682.43
2018-11-11T21:21:28.003Z,96694.79
2018-11-11T21:23:57.504Z,96669.28
2018-11-11T21:26:25.915Z,96684.36
2018-11-11T21:28:57.332Z,96686.99
2018-11-11T21:31:26.060Z,96663.41
2018-11-11T21:33:54.919Z,96663.07
2018-11-11T21:36:23.589Z,96674.83
2018-11-11T21:38:52.331Z,96675.05
2018-11-11T21:41:21.779Z,96682.86
2018-11-11T21:43:52.419Z,96680.36
2018-11-11T21:46:21.870Z,96675.50
2018-11-11T21:48:51.091Z,96677.85
2018-11-11T21:51:19.893Z,96686.15
2018-11-11T21:53:49.488Z,96684.55
2018-11-11T21:56:19.546Z,96680.53
2018-11-11T21:58:48.523Z,96686.53
2018-11-11T22:01:17.785Z,96682.84
2018-11-11T22:03:47.255Z,96677.16
2018-11-11T22:06:15.558Z,96677.63
2018-11-11T22:08:43.993Z,96675.83
2018-11-11T22:11:12.240Z,96676.05
2018-11-11T22:13:40.572Z,96678.75
2018-11-11T22:16:10.062Z,96659.16
2018-11-11T22:18:39.242Z,96670.64
2018-11-11T22:21:08.597Z,96674.69
2018-11-11T22:23:38.812Z,96685.70
2018-11-11T22:26:08.403Z,96682.12
2018-11-11T22:28:36.768Z,96688.10
2018-11-11T22:31:05.585Z,96685.44
2018-11-11T22:33:34.280Z,96696.52
2018-11-11T22:36:02.603Z,96684.19
2018-11-11T22:38:30.939Z,96681.19
2018-11-11T22:40:59.275Z,96680.15
2018-11-11T22:43:28.092Z,96680.38
2018-11-11T22:45:56.511Z,96677.19
2018-11-11T22:48:25.285Z,96680.38
2018-11-11T22:50:53.960Z,96670.34
2018-11-11T22:53:23.459Z,96668.97
2018-11-11T22:55:51.792Z,96676.20
2018-11-11T22:58:20.099Z,96682.07
2018-11-11T23:00:53.922Z,96686.75
2018-11-11T23:03:22.666Z,96685.00
2018-11-11T23:05:51.035Z,96684.15
2018-11-11T23:08:19.388Z,96687.20
2018-11-11T23:10:47.732Z,96681.71
2018-11-11T23:13:17.364Z,96678.09
2018-11-11T23:15:45.935Z,96683.64
2018-11-11T23:18:15.136Z,96682.73
2018-11-11T23:20:43.468Z,96682.43
2018-11-11T23:23:11.931Z,96678.28
2018-11-11T23:25:40.251Z,96680.53
2018-11-11T23:28:09.005Z,96683.15
2018-11-11T23:30:37.847Z,96678.03
2018-11-11T23:33:06.971Z,96678.56
2018-11-11T23:35:35.319Z,96682.63
2018-11-11T23:38:03.664Z,96683.97
2018-11-11T23:40:32.028Z,96672.27
2018-11-11T23:43:00.336Z,96674.89
2018-11-11T23:45:28.684Z,96667.56
2018-11-11T23:47:56.992Z,96664.95
2018-11-11T23:50:25.715Z,96670.39
2018-11-11T23:52:54.019Z,96668.58
2018-11-11T23:55:23.387Z,96680.16
2018-11-11T23:57:51.686Z,96687.22
